createdAt,value
2022-08-29T00:08:58.671Z,0.32
2022-08-29T00:23:59.048Z,0.13
2022-08-29T00:38:58.717Z,0.22
2022-08-29T00:53:58.982Z,0.60
2022-08-29T01:08:58.950Z,0.50
2022-08-29T01:23:58.775Z,0.49
2022-08-29T01:38:58.870Z,0.16
2022-08-29T01:53:59.219Z,0.19
2022-08-29T02:08:58.939Z,0.07
2022-08-29T02:24:15.961Z,0.00
2022-08-29T02:38:59.271Z,0.00
2022-08-29T02:53:59.366Z,0.00
2022-08-29T03:08:59.222Z,0.00
2022-08-29T03:23:59.246Z,0.00
2022-08-29T03:38:59.250Z,0.00
2022-08-29T03:53:59.394Z,0.23
2022-08-29T04:08:59.375Z,0.00
2022-08-29T04:23:59.253Z,0.02
2022-08-29T04:38:59.379Z,0.03
2022-08-29T04:53:59.453Z,0.29
2022-08-29T05:09:00.129Z,0.19
2022-08-29T05:23:59.468Z,1.12
2022-08-29T05:38:59.605Z,0.54
2022-08-29T05:53:59.504Z,1.28
2022-08-29T06:08:59.614Z,2.16
2022-08-29T06:23:59.986Z,1.96
2022-08-29T06:38:59.735Z,1.96
2022-08-29T06:53:59.764Z,1.29
2022-08-29T07:08:59.709Z,1.78
2022-08-29T07:23:59.849Z,1.63
2022-08-29T07:38:59.834Z,1.90
2022-08-29T07:53:59.910Z,1.95
2022-08-29T08:08:59.930Z,1.68
2022-08-29T08:23:59.952Z,1.91
2022-08-29T08:39:00.026Z,2.19
2022-08-29T08:54:00.078Z,1.79
2022-08-29T09:08:59.963Z,1.88
2022-08-29T09:24:00.180Z,1.87
2022-08-29T09:39:00.164Z,1.41
2022-08-29T09:54:00.161Z,2.43
2022-08-29T10:09:00.107Z,2.12
2022-08-29T10:24:00.106Z,1.93
2022-08-29T10:39:00.290Z,2.31
2022-08-29T10:54:00.529Z,1.45
2022-08-29T11:09:00.348Z,2.54
2022-08-29T11:24:00.330Z,2.12
2022-08-29T11:39:00.524Z,2.64
2022-08-29T11:54:00.498Z,1.68
2022-08-29T12:09:04.513Z,2.54
2022-08-29T12:24:00.562Z,2.98
2022-08-29T12:39:00.540Z,2.63
2022-08-29T12:54:00.725Z,1.92
2022-08-29T13:09:00.763Z,2.58
2022-08-29T13:24:00.787Z,2.05
2022-08-29T13:39:00.880Z,2.69
2022-08-29T13:54:00.875Z,2.75
2022-08-29T14:09:01.044Z,3.12
2022-08-29T14:24:00.988Z,2.72
2022-08-29T14:39:01.002Z,2.56
2022-08-29T14:54:01.006Z,3.31
2022-08-29T15:09:00.995Z,2.19
2022-08-29T15:24:01.106Z,2.37
2022-08-29T15:39:01.109Z,2.24
2022-08-29T15:54:01.036Z,2.78
2022-08-29T16:09:01.092Z,2.88
2022-08-29T16:24:01.119Z,1.98
2022-08-29T16:39:01.271Z,1.69
2022-08-29T16:54:01.136Z,2.46
2022-08-29T17:09:04.232Z,2.42
2022-08-29T17:24:01.389Z,2.34
2022-08-29T17:39:01.360Z,1.99
2022-08-29T17:54:01.597Z,2.40
2022-08-29T18:09:01.572Z,2.23
2022-08-29T18:24:01.664Z,1.83
2022-08-29T18:39:01.371Z,0.97
2022-08-29T18:54:01.584Z,1.09
2022-08-29T19:09:01.562Z,0.69
2022-08-29T19:24:01.749Z,0.86
2022-08-29T19:39:01.701Z,1.01
2022-08-29T19:54:01.639Z,1.27
2022-08-29T20:09:01.707Z,1.14
2022-08-29T20:24:01.800Z,1.11
2022-08-29T20:39:01.829Z,1.16
2022-08-29T20:54:01.920Z,0.99
2022-08-29T21:09:01.915Z,1.03
2022-08-29T21:24:01.917Z,1.70
2022-08-29T21:39:01.912Z,1.77
2022-08-29T21:54:01.955Z,2.29
2022-08-29T22:09:02.002Z,2.71
2022-08-29T22:24:02.056Z,2.76
2022-08-29T22:39:02.168Z,2.83
2022-08-29T22:54:02.140Z,3.04
2022-08-29T23:09:02.166Z,2.14
2022-08-29T23:24:02.331Z,2.26
2022-08-29T23:39:02.292Z,2.66
2022-08-29T23:54:02.282Z,3.13
